sensor_id;sensor_type;location;lat;lon;timestamp;pressure;altitude;pressure_sealevel;temperature;humidity
61394;BME280;48555;50.952;-0.120;2023-02-26T00:00:36;101597.00;;;3.57;79.61
61394;BME280;48555;50.952;-0.120;2023-02-26T00:03:01;101588.16;;;3.35;80.77
61394;BME280;48555;50.952;-0.120;2023-02-26T00:05:26;101583.31;;;3.23;81.50
61394;BME280;48555;50.952;-0.120;2023-02-26T00:07:52;101598.25;;;3.13;82.11
61394;BME280;48555;50.952;-0.120;2023-02-26T00:10:18;101585.28;;;3.14;82.44
61394;BME280;48555;50.952;-0.120;2023-02-26T00:12:44;101590.81;;;3.32;81.74
61394;BME280;48555;50.952;-0.120;2023-02-26T00:15:11;101592.16;;;3.15;82.27
61394;BME280;48555;50.952;-0.120;2023-02-26T00:17:53;101595.91;;;3.35;81.83
61394;BME280;48555;50.952;-0.120;2023-02-26T00:20:21;101601.63;;;3.46;80.87
61394;BME280;48555;50.952;-0.120;2023-02-26T00:22:46;101601.00;;;3.68;79.98
61394;BME280;48555;50.952;-0.120;2023-02-26T00:25:12;101598.69;;;3.58;80.09
61394;BME280;48555;50.952;-0.120;2023-02-26T00:27:38;101596.38;;;3.79;79.58
61394;BME280;48555;50.952;-0.120;2023-02-26T00:30:05;101600.28;;;3.92;78.53
61394;BME280;48555;50.952;-0.120;2023-02-26T00:32:32;101596.16;;;3.86;78.68
61394;BME280;48555;50.952;-0.120;2023-02-26T00:34:58;101595.78;;;3.99;78.01
61394;BME280;48555;50.952;-0.120;2023-02-26T00:43:04;101602.59;;;4.01;77.50
61394;BME280;48555;50.952;-0.120;2023-02-26T00:45:30;101592.56;;;3.91;77.75
61394;BME280;48555;50.952;-0.120;2023-02-26T00:50:51;101607.16;;;3.93;77.88
61394;BME280;48555;50.952;-0.120;2023-02-26T00:53:26;101605.47;;;3.92;78.11
61394;BME280;48555;50.952;-0.120;2023-02-26T00:55:52;101612.44;;;3.90;78.00
61394;BME280;48555;50.952;-0.120;2023-02-26T00:58:18;101609.75;;;3.93;77.96
61394;BME280;48555;50.952;-0.120;2023-02-26T01:00:43;101611.84;;;3.80;78.98
61394;BME280;48555;50.952;-0.120;2023-02-26T01:03:09;101611.31;;;3.69;79.46
61394;BME280;48555;50.952;-0.120;2023-02-26T01:05:35;101618.50;;;3.59;80.15
61394;BME280;48555;50.952;-0.120;2023-02-26T01:10:30;101617.50;;;3.32;81.69
61394;BME280;48555;50.952;-0.120;2023-02-26T01:12:56;101619.81;;;3.43;81.89
61394;BME280;48555;50.952;-0.120;2023-02-26T01:15:23;101619.16;;;3.35;82.05
61394;BME280;48555;50.952;-0.120;2023-02-26T01:17:58;101618.59;;;3.56;81.43
61394;BME280;48555;50.952;-0.120;2023-02-26T01:20:30;101612.88;;;3.75;80.69
61394;BME280;48555;50.952;-0.120;2023-02-26T01:23:03;101618.78;;;3.80;80.22
61394;BME280;48555;50.952;-0.120;2023-02-26T01:28:00;101626.16;;;3.92;79.11
61394;BME280;48555;50.952;-0.120;2023-02-26T01:30:26;101629.50;;;3.96;79.05
61394;BME280;48555;50.952;-0.120;2023-02-26T01:38:50;101636.63;;;3.89;79.29
61394;BME280;48555;50.952;-0.120;2023-02-26T01:49:38;101632.94;;;3.96;78.25
61394;BME280;48555;50.952;-0.120;2023-02-26T01:52:06;101635.44;;;3.99;78.11
61394;BME280;48555;50.952;-0.120;2023-02-26T01:54:36;101634.59;;;3.99;78.27
61394;BME280;48555;50.952;-0.120;2023-02-26T01:57:07;101639.66;;;4.03;77.74
61394;BME280;48555;50.952;-0.120;2023-02-26T01:59:37;101643.06;;;4.04;77.67
61394;BME280;48555;50.952;-0.120;2023-02-26T02:02:06;101645.50;;;4.08;77.53
61394;BME280;48555;50.952;-0.120;2023-02-26T02:04:33;101643.69;;;4.12;77.10
61394;BME280;48555;50.952;-0.120;2023-02-26T02:06:59;101640.94;;;4.17;77.21
61394;BME280;48555;50.952;-0.120;2023-02-26T02:09:25;101633.19;;;4.17;77.03
61394;BME280;48555;50.952;-0.120;2023-02-26T02:14:23;101643.69;;;4.12;76.89
61394;BME280;48555;50.952;-0.120;2023-02-26T02:17:08;101641.28;;;4.06;76.94
61394;BME280;48555;50.952;-0.120;2023-02-26T02:22:31;101651.72;;;4.03;77.41
61394;BME280;48555;50.952;-0.120;2023-02-26T02:27:58;101659.41;;;4.06;76.74
61394;BME280;48555;50.952;-0.120;2023-02-26T02:33:19;101648.53;;;3.95;77.73
61394;BME280;48555;50.952;-0.120;2023-02-26T02:35:58;101647.69;;;3.94;77.71
61394;BME280;48555;50.952;-0.120;2023-02-26T02:38:31;101644.28;;;3.92;77.75
61394;BME280;48555;50.952;-0.120;2023-02-26T02:41:21;101652.06;;;3.92;77.85
61394;BME280;48555;50.952;-0.120;2023-02-26T02:43:49;101655.38;;;3.96;77.16
61394;BME280;48555;50.952;-0.120;2023-02-26T02:46:20;101644.13;;;3.97;77.16
61394;BME280;48555;50.952;-0.120;2023-02-26T02:48:55;101644.84;;;4.02;76.99
61394;BME280;48555;50.952;-0.120;2023-02-26T02:51:27;101660.38;;;4.02;77.24
61394;BME280;48555;50.952;-0.120;2023-02-26T02:53:58;101661.66;;;3.89;77.94
61394;BME280;48555;50.952;-0.120;2023-02-26T02:56:34;101653.72;;;3.63;78.58
61394;BME280;48555;50.952;-0.120;2023-02-26T03:04:56;101656.03;;;3.10;81.33
61394;BME280;48555;50.952;-0.120;2023-02-26T03:07:21;101654.44;;;3.05;81.79
61394;BME280;48555;50.952;-0.120;2023-02-26T03:09:47;101673.41;;;2.69;83.16
61394;BME280;48555;50.952;-0.120;2023-02-26T03:12:13;101667.19;;;3.12;82.07
61394;BME280;48555;50.952;-0.120;2023-02-26T03:14:39;101669.44;;;3.25;81.32
61394;BME280;48555;50.952;-0.120;2023-02-26T03:17:30;101674.16;;;3.41;80.16
61394;BME280;48555;50.952;-0.120;2023-02-26T03:27:47;101679.38;;;3.07;80.65
61394;BME280;48555;50.952;-0.120;2023-02-26T03:30:18;101679.13;;;3.16;80.58
61394;BME280;48555;50.952;-0.120;2023-02-26T03:35:38;101677.97;;;3.28;79.49
61394;BME280;48555;50.952;-0.120;2023-02-26T03:38:15;101672.13;;;3.20;79.77
61394;BME280;48555;50.952;-0.120;2023-02-26T03:40:47;101676.69;;;3.12;79.69
61394;BME280;48555;50.952;-0.120;2023-02-26T03:43:25;101687.13;;;3.07;80.27
61394;BME280;48555;50.952;-0.120;2023-02-26T03:45:57;101679.94;;;3.18;79.47
61394;BME280;48555;50.952;-0.120;2023-02-26T03:48:26;101679.84;;;3.22;78.92
61394;BME280;48555;50.952;-0.120;2023-02-26T03:50:57;101679.00;;;3.21;78.93
61394;BME280;48555;50.952;-0.120;2023-02-26T03:53:29;101687.19;;;3.04;79.33
61394;BME280;48555;50.952;-0.120;2023-02-26T03:58:23;101689.53;;;2.79;80.51
61394;BME280;48555;50.952;-0.120;2023-02-26T04:00:53;101698.44;;;3.03;79.90
61394;BME280;48555;50.952;-0.120;2023-02-26T04:06:07;101703.44;;;2.73;81.10
61394;BME280;48555;50.952;-0.120;2023-02-26T04:08:33;101708.28;;;2.87;80.89
61394;BME280;48555;50.952;-0.120;2023-02-26T04:11:09;101703.94;;;2.89;80.19
61394;BME280;48555;50.952;-0.120;2023-02-26T04:13:35;101708.59;;;3.09;79.74
61394;BME280;48555;50.952;-0.120;2023-02-26T04:16:00;101706.38;;;2.94;79.98
61394;BME280;48555;50.952;-0.120;2023-02-26T04:18:26;101711.91;;;3.14;79.59
61394;BME280;48555;50.952;-0.120;2023-02-26T04:20:51;101713.94;;;3.03;79.87
61394;BME280;48555;50.952;-0.120;2023-02-26T04:23:16;101714.88;;;2.99;80.28
61394;BME280;48555;50.952;-0.120;2023-02-26T04:25:44;101713.81;;;3.08;79.66
61394;BME280;48555;50.952;-0.120;2023-02-26T04:28:09;101705.88;;;2.80;80.81
61394;BME280;48555;50.952;-0.120;2023-02-26T04:30:35;101714.63;;;2.74;81.38
61394;BME280;48555;50.952;-0.120;2023-02-26T04:33:00;101713.34;;;2.55;82.48
61394;BME280;48555;50.952;-0.120;2023-02-26T04:35:25;101716.69;;;2.58;82.06
61394;BME280;48555;50.952;-0.120;2023-02-26T04:37:51;101711.72;;;2.50;82.71
61394;BME280;48555;50.952;-0.120;2023-02-26T04:40:16;101720.09;;;2.62;82.25
61394;BME280;48555;50.952;-0.120;2023-02-26T04:42:41;101731.78;;;2.38;83.51
61394;BME280;48555;50.952;-0.120;2023-02-26T04:45:07;101729.94;;;2.44;83.12
61394;BME280;48555;50.952;-0.120;2023-02-26T04:47:32;101731.63;;;2.45;83.15
61394;BME280;48555;50.952;-0.120;2023-02-26T04:49:58;101734.53;;;2.69;82.56
61394;BME280;48555;50.952;-0.120;2023-02-26T04:52:23;101740.00;;;2.55;82.63
61394;BME280;48555;50.952;-0.120;2023-02-26T04:54:49;101748.28;;;2.69;82.35
61394;BME280;48555;50.952;-0.120;2023-02-26T04:57:14;101739.63;;;2.72;82.19
61394;BME280;48555;50.952;-0.120;2023-02-26T04:59:39;101741.84;;;2.89;81.65
61394;BME280;48555;50.952;-0.120;2023-02-26T05:02:04;101753.31;;;2.76;81.68
61394;BME280;48555;50.952;-0.120;2023-02-26T05:04:30;101743.53;;;2.90;81.69
61394;BME280;48555;50.952;-0.120;2023-02-26T05:06:56;101750.06;;;2.67;82.62
61394;BME280;48555;50.952;-0.120;2023-02-26T05:09:21;101752.38;;;2.80;82.09
61394;BME280;48555;50.952;-0.120;2023-02-26T05:11:47;101735.44;;;2.68;81.86
61394;BME280;48555;50.952;-0.120;2023-02-26T05:14:13;101744.38;;;2.53;82.76
61394;BME280;48555;50.952;-0.120;2023-02-26T05:16:38;101757.66;;;2.75;82.82
61394;BME280;48555;50.952;-0.120;2023-02-26T05:19:04;101751.25;;;2.91;82.09
61394;BME280;48555;50.952;-0.120;2023-02-26T05:21:29;101751.50;;;2.81;81.94
61394;BME280;48555;50.952;-0.120;2023-02-26T05:23:55;101756.88;;;2.71;82.93
61394;BME280;48555;50.952;-0.120;2023-02-26T05:26:21;101754.38;;;2.67;83.54
61394;BME280;48555;50.952;-0.120;2023-02-26T05:28:47;101748.38;;;2.66;83.28
61394;BME280;48555;50.952;-0.120;2023-02-26T05:31:13;101756.38;;;2.93;82.56
61394;BME280;48555;50.952;-0.120;2023-02-26T05:33:38;101762.50;;;2.89;82.84
61394;BME280;48555;50.952;-0.120;2023-02-26T05:36:04;101761.06;;;3.13;82.12
61394;BME280;48555;50.952;-0.120;2023-02-26T05:38:31;101760.75;;;2.89;82.78
61394;BME280;48555;50.952;-0.120;2023-02-26T05:40:57;101751.38;;;2.85;82.96
61394;BME280;48555;50.952;-0.120;2023-02-26T05:43:23;101762.31;;;2.96;83.20
61394;BME280;48555;50.952;-0.120;2023-02-26T05:45:49;101761.38;;;2.99;82.88
61394;BME280;48555;50.952;-0.120;2023-02-26T05:48:15;101767.13;;;3.12;82.81
61394;BME280;48555;50.952;-0.120;2023-02-26T05:50:40;101767.63;;;2.90;83.15
61394;BME280;48555;50.952;-0.120;2023-02-26T05:53:06;101767.81;;;3.18;82.46
61394;BME280;48555;50.952;-0.120;2023-02-26T05:55:31;101776.41;;;3.19;82.45
61394;BME280;48555;50.952;-0.120;2023-02-26T05:57:56;101776.88;;;3.01;82.78
61394;BME280;48555;50.952;-0.120;2023-02-26T06:00:22;101787.41;;;2.91;83.15
61394;BME280;48555;50.952;-0.120;2023-02-26T06:02:47;101786.47;;;2.94;83.47
61394;BME280;48555;50.952;-0.120;2023-02-26T06:05:13;101789.94;;;2.94;83.32
61394;BME280;48555;50.952;-0.120;2023-02-26T06:07:38;101795.72;;;3.04;83.04
61394;BME280;48555;50.952;-0.120;2023-02-26T06:10:04;101793.50;;;3.25;82.18
61394;BME280;48555;50.952;-0.120;2023-02-26T06:12:30;101779.00;;;3.19;82.06
61394;BME280;48555;50.952;-0.120;2023-02-26T06:14:55;101790.34;;;3.13;82.17
61394;BME280;48555;50.952;-0.120;2023-02-26T06:17:21;101790.34;;;3.13;82.26
61394;BME280;48555;50.952;-0.120;2023-02-26T06:19:46;101793.09;;;3.41;81.15
61394;BME280;48555;50.952;-0.120;2023-02-26T06:22:11;101803.47;;;3.40;80.95
61394;BME280;48555;50.952;-0.120;2023-02-26T06:24:37;101805.44;;;3.64;79.84
61394;BME280;48555;50.952;-0.120;2023-02-26T06:27:02;101802.72;;;3.69;79.16
61394;BME280;48555;50.952;-0.120;2023-02-26T06:29:27;101806.47;;;3.59;79.40
61394;BME280;48555;50.952;-0.120;2023-02-26T06:31:53;101789.94;;;3.30;80.64
61394;BME280;48555;50.952;-0.120;2023-02-26T06:34:18;101804.06;;;3.15;81.28
61394;BME280;48555;50.952;-0.120;2023-02-26T06:36:44;101809.72;;;3.31;80.91
61394;BME280;48555;50.952;-0.120;2023-02-26T06:39:09;101799.81;;;3.13;81.18
61394;BME280;48555;50.952;-0.120;2023-02-26T06:41:36;101822.38;;;3.42;80.73
61394;BME280;48555;50.952;-0.120;2023-02-26T06:44:02;101825.41;;;3.59;79.91
61394;BME280;48555;50.952;-0.120;2023-02-26T06:46:28;101828.63;;;3.33;80.86
61394;BME280;48555;50.952;-0.120;2023-02-26T06:48:53;101835.31;;;3.42;80.76
61394;BME280;48555;50.952;-0.120;2023-02-26T06:51:19;101842.03;;;3.13;81.69
61394;BME280;48555;50.952;-0.120;2023-02-26T06:53:44;101833.22;;;3.21;81.68
61394;BME280;48555;50.952;-0.120;2023-02-26T06:56:09;101841.06;;;3.17;81.80
61394;BME280;48555;50.952;-0.120;2023-02-26T06:58:35;101847.56;;;3.35;81.54
61394;BME280;48555;50.952;-0.120;2023-02-26T07:01:02;101850.53;;;3.18;81.60
61394;BME280;48555;50.952;-0.120;2023-02-26T07:03:28;101848.25;;;3.05;82.53
61394;BME280;48555;50.952;-0.120;2023-02-26T07:05:53;101847.66;;;3.29;81.74
61394;BME280;48555;50.952;-0.120;2023-02-26T07:08:18;101852.19;;;3.57;80.75
61394;BME280;48555;50.952;-0.120;2023-02-26T07:10:44;101851.22;;;3.61;80.17
61394;BME280;48555;50.952;-0.120;2023-02-26T07:13:13;101857.53;;;3.51;80.53
61394;BME280;48555;50.952;-0.120;2023-02-26T07:15:39;101862.38;;;3.63;80.02
61394;BME280;48555;50.952;-0.120;2023-02-26T07:18:04;101874.03;;;3.79;79.15
61394;BME280;48555;50.952;-0.120;2023-02-26T07:20:30;101867.16;;;3.80;78.69
61394;BME280;48555;50.952;-0.120;2023-02-26T07:22:55;101878.94;;;3.90;78.33
61394;BME280;48555;50.952;-0.120;2023-02-26T07:25:20;101893.63;;;3.90;78.49
61394;BME280;48555;50.952;-0.120;2023-02-26T07:27:46;101906.13;;;3.72;78.71
61394;BME280;48555;50.952;-0.120;2023-02-26T07:30:12;101909.47;;;3.77;79.52
61394;BME280;48555;50.952;-0.120;2023-02-26T07:32:38;101923.91;;;3.86;79.11
61394;BME280;48555;50.952;-0.120;2023-02-26T07:35:04;101922.41;;;3.77;79.01
61394;BME280;48555;50.952;-0.120;2023-02-26T07:37:29;101926.34;;;3.92;79.27
61394;BME280;48555;50.952;-0.120;2023-02-26T07:39:54;101927.50;;;3.80;79.02
61394;BME280;48555;50.952;-0.120;2023-02-26T07:42:20;101929.53;;;4.02;78.90
61394;BME280;48555;50.952;-0.120;2023-02-26T07:44:45;101936.63;;;3.94;78.25
61394;BME280;48555;50.952;-0.120;2023-02-26T07:47:11;101943.22;;;4.07;77.94
61394;BME280;48555;50.952;-0.120;2023-02-26T07:49:37;101943.53;;;3.95;78.41
61394;BME280;48555;50.952;-0.120;2023-02-26T07:52:02;101946.56;;;4.12;77.83
61394;BME280;48555;50.952;-0.120;2023-02-26T07:54:28;101945.69;;;4.12;77.74
61394;BME280;48555;50.952;-0.120;2023-02-26T07:56:53;101948.94;;;4.20;77.47
61394;BME280;48555;50.952;-0.120;2023-02-26T07:59:19;101951.50;;;4.21;77.76
61394;BME280;48555;50.952;-0.120;2023-02-26T08:01:44;101952.63;;;4.75;76.94
61394;BME280;48555;50.952;-0.120;2023-02-26T08:04:09;101947.84;;;5.20;75.54
61394;BME280;48555;50.952;-0.120;2023-02-26T08:06:35;101958.66;;;5.35;74.40
61394;BME280;48555;50.952;-0.120;2023-02-26T08:09:01;101960.41;;;5.34;74.04
61394;BME280;48555;50.952;-0.120;2023-02-26T08:11:27;101959.94;;;5.21;74.37
61394;BME280;48555;50.952;-0.120;2023-02-26T08:13:52;101966.16;;;5.16;74.72
61394;BME280;48555;50.952;-0.120;2023-02-26T08:16:18;101966.25;;;5.13;74.70
61394;BME280;48555;50.952;-0.120;2023-02-26T08:18:43;101976.25;;;4.95;75.48
61394;BME280;48555;50.952;-0.120;2023-02-26T08:21:09;101978.38;;;5.11;75.34
61394;BME280;48555;50.952;-0.120;2023-02-26T08:23:35;101975.94;;;5.06;75.65
61394;BME280;48555;50.952;-0.120;2023-02-26T08:26:07;101986.94;;;5.14;75.48
61394;BME280;48555;50.952;-0.120;2023-02-26T08:28:32;101990.50;;;5.10;75.68
61394;BME280;48555;50.952;-0.120;2023-02-26T08:30:59;101993.00;;;5.13;75.61
61394;BME280;48555;50.952;-0.120;2023-02-26T08:33:25;101996.38;;;5.17;75.85
61394;BME280;48555;50.952;-0.120;2023-02-26T08:35:51;101991.31;;;5.12;75.90
61394;BME280;48555;50.952;-0.120;2023-02-26T08:38:18;102009.06;;;5.26;75.73
61394;BME280;48555;50.952;-0.120;2023-02-26T08:40:43;102010.50;;;5.07;76.06
61394;BME280;48555;50.952;-0.120;2023-02-26T08:43:09;102008.53;;;5.15;76.32
61394;BME280;48555;50.952;-0.120;2023-02-26T08:45:36;102000.06;;;5.08;76.16
61394;BME280;48555;50.952;-0.120;2023-02-26T08:48:01;102009.25;;;5.20;76.05
61394;BME280;48555;50.952;-0.120;2023-02-26T08:50:26;102012.47;;;5.28;75.98
61394;BME280;48555;50.952;-0.120;2023-02-26T08:52:52;102013.38;;;5.27;75.69
61394;BME280;48555;50.952;-0.120;2023-02-26T08:55:18;102028.13;;;4.94;76.93
61394;BME280;48555;50.952;-0.120;2023-02-26T08:57:43;102016.25;;;5.16;76.47
61394;BME280;48555;50.952;-0.120;2023-02-26T09:00:09;102010.41;;;5.39;75.34
61394;BME280;48555;50.952;-0.120;2023-02-26T09:02:36;102022.09;;;5.53;75.29
61394;BME280;48555;50.952;-0.120;2023-02-26T09:05:01;102020.75;;;5.69;74.70
61394;BME280;48555;50.952;-0.120;2023-02-26T09:07:26;102022.25;;;5.76;74.36
61394;BME280;48555;50.952;-0.120;2023-02-26T09:09:52;102034.25;;;5.80;73.75
61394;BME280;48555;50.952;-0.120;2023-02-26T09:12:17;102034.25;;;5.80;73.78
61394;BME280;48555;50.952;-0.120;2023-02-26T09:14:42;102037.50;;;5.87;73.55
61394;BME280;48555;50.952;-0.120;2023-02-26T09:17:08;102044.22;;;5.66;73.51
61394;BME280;48555;50.952;-0.120;2023-02-26T09:19:33;102046.19;;;5.86;73.62
61394;BME280;48555;50.952;-0.120;2023-02-26T09:21:58;102047.94;;;5.85;73.45
61394;BME280;48555;50.952;-0.120;2023-02-26T09:24:24;102041.25;;;6.06;73.00
61394;BME280;48555;50.952;-0.120;2023-02-26T09:26:49;102037.34;;;6.20;72.91
61394;BME280;48555;50.952;-0.120;2023-02-26T09:29:14;102051.84;;;6.27;71.85
61394;BME280;48555;50.952;-0.120;2023-02-26T09:31:40;102051.78;;;6.28;71.94
61394;BME280;48555;50.952;-0.120;2023-02-26T09:34:05;102059.75;;;6.50;72.21
61394;BME280;48555;50.952;-0.120;2023-02-26T09:36:31;102060.16;;;6.88;71.45
61394;BME280;48555;50.952;-0.120;2023-02-26T09:38:56;102075.56;;;6.94;70.71
61394;BME280;48555;50.952;-0.120;2023-02-26T09:41:33;102067.13;;;7.11;70.49
61394;BME280;48555;50.952;-0.120;2023-02-26T09:44:08;102058.50;;;7.34;69.23
61394;BME280;48555;50.952;-0.120;2023-02-26T09:49:28;102064.31;;;7.17;68.38
61394;BME280;48555;50.952;-0.120;2023-02-26T09:52:01;102071.75;;;6.79;69.63
61394;BME280;48555;50.952;-0.120;2023-02-26T09:54:31;102072.47;;;6.58;70.36
61394;BME280;48555;50.952;-0.120;2023-02-26T09:57:00;102077.47;;;6.89;69.77
61394;BME280;48555;50.952;-0.120;2023-02-26T09:59:31;102076.50;;;6.92;69.38
61394;BME280;48555;50.952;-0.120;2023-02-26T10:02:39;102085.84;;;6.97;68.58
61394;BME280;48555;50.952;-0.120;2023-02-26T10:05:40;102084.78;;;7.03;67.86
61394;BME280;48555;50.952;-0.120;2023-02-26T10:08:14;102100.63;;;7.20;67.92
61394;BME280;48555;50.952;-0.120;2023-02-26T10:10:56;102094.66;;;7.18;68.29
61394;BME280;48555;50.952;-0.120;2023-02-26T10:13:35;102097.59;;;7.33;68.24
61394;BME280;48555;50.952;-0.120;2023-02-26T10:16:10;102096.84;;;7.29;67.73
61394;BME280;48555;50.952;-0.120;2023-02-26T10:18:44;102106.75;;;7.19;67.69
61394;BME280;48555;50.952;-0.120;2023-02-26T10:21:21;102116.94;;;7.25;67.79
61394;BME280;48555;50.952;-0.120;2023-02-26T10:23:54;102119.97;;;7.13;67.27
61394;BME280;48555;50.952;-0.120;2023-02-26T10:26:33;102119.19;;;6.86;67.99
61394;BME280;48555;50.952;-0.120;2023-02-26T10:36:53;102138.47;;;6.79;68.38
61394;BME280;48555;50.952;-0.120;2023-02-26T10:42:26;102140.38;;;7.00;67.57
61394;BME280;48555;50.952;-0.120;2023-02-26T10:45:08;102140.41;;;6.74;67.33
61394;BME280;48555;50.952;-0.120;2023-02-26T10:50:03;102151.94;;;6.92;65.69
61394;BME280;48555;50.952;-0.120;2023-02-26T10:52:31;102145.59;;;6.99;65.44
61394;BME280;48555;50.952;-0.120;2023-02-26T10:55:28;102153.25;;;7.28;65.15
61394;BME280;48555;50.952;-0.120;2023-02-26T11:00:26;102129.13;;;7.48;63.75
61394;BME280;48555;50.952;-0.120;2023-02-26T11:02:52;102144.84;;;7.69;63.80
61394;BME280;48555;50.952;-0.120;2023-02-26T11:05:24;102136.69;;;7.78;63.87
61394;BME280;48555;50.952;-0.120;2023-02-26T11:07:54;102143.47;;;7.59;63.10
61394;BME280;48555;50.952;-0.120;2023-02-26T11:10:24;102146.91;;;8.06;62.33
61394;BME280;48555;50.952;-0.120;2023-02-26T11:12:50;102126.03;;;7.84;61.29
61394;BME280;48555;50.952;-0.120;2023-02-26T11:15:20;102146.03;;;7.84;59.61
61394;BME280;48555;50.952;-0.120;2023-02-26T11:17:47;102148.28;;;7.93;59.39
61394;BME280;48555;50.952;-0.120;2023-02-26T11:20:25;102159.38;;;7.98;59.57
61394;BME280;48555;50.952;-0.120;2023-02-26T11:22:53;102145.41;;;7.77;59.91
61394;BME280;48555;50.952;-0.120;2023-02-26T11:25:24;102155.75;;;8.02;59.54
61394;BME280;48555;50.952;-0.120;2023-02-26T11:28:06;102156.34;;;8.09;58.27
61394;BME280;48555;50.952;-0.120;2023-02-26T11:30:36;102170.53;;;8.02;56.82
61394;BME280;48555;50.952;-0.120;2023-02-26T11:33:19;102167.09;;;7.78;55.06
61394;BME280;48555;50.952;-0.120;2023-02-26T11:35:45;102164.03;;;7.66;55.21
61394;BME280;48555;50.952;-0.120;2023-02-26T11:38:18;102166.75;;;7.87;55.44
61394;BME280;48555;50.952;-0.120;2023-02-26T11:40:47;102167.91;;;7.80;54.77
61394;BME280;48555;50.952;-0.120;2023-02-26T11:43:24;102167.13;;;7.76;54.90
61394;BME280;48555;50.952;-0.120;2023-02-26T11:45:56;102167.31;;;7.95;54.67
61394;BME280;48555;50.952;-0.120;2023-02-26T11:48:25;102181.97;;;7.97;54.07
61394;BME280;48555;50.952;-0.120;2023-02-26T11:50:59;102168.97;;;7.74;53.47
61394;BME280;48555;50.952;-0.120;2023-02-26T11:53:34;102171.84;;;7.66;53.82
61394;BME280;48555;50.952;-0.120;2023-02-26T11:56:11;102165.34;;;7.78;52.31
61394;BME280;48555;50.952;-0.120;2023-02-26T11:58:39;102168.38;;;7.89;51.29
61394;BME280;48555;50.952;-0.120;2023-02-26T12:01:07;102165.22;;;7.81;50.59
61394;BME280;48555;50.952;-0.120;2023-02-26T12:03:37;102170.06;;;7.90;50.12
61394;BME280;48555;50.952;-0.120;2023-02-26T12:06:06;102170.38;;;7.83;50.44
61394;BME280;48555;50.952;-0.120;2023-02-26T12:08:34;102177.16;;;7.87;50.58
61394;BME280;48555;50.952;-0.120;2023-02-26T12:18:59;102193.13;;;7.78;51.29
61394;BME280;48555;50.952;-0.120;2023-02-26T12:24:27;102210.50;;;7.54;53.38
61394;BME280;48555;50.952;-0.120;2023-02-26T12:29:51;102221.91;;;7.24;54.32
61394;BME280;48555;50.952;-0.120;2023-02-26T12:38:18;102217.13;;;7.37;55.68
61394;BME280;48555;50.952;-0.120;2023-02-26T12:43:43;102220.75;;;7.33;56.35
61394;BME280;48555;50.952;-0.120;2023-02-26T12:46:15;102213.78;;;7.34;55.77
61394;BME280;48555;50.952;-0.120;2023-02-26T12:51:33;102219.13;;;7.29;56.07
61394;BME280;48555;50.952;-0.120;2023-02-26T12:54:32;102222.91;;;7.20;57.34
61394;BME280;48555;50.952;-0.120;2023-02-26T13:03:06;102208.47;;;7.37;53.47
61394;BME280;48555;50.952;-0.120;2023-02-26T13:05:46;102205.69;;;7.66;53.04
61394;BME280;48555;50.952;-0.120;2023-02-26T13:08:27;102226.25;;;7.97;51.61
61394;BME280;48555;50.952;-0.120;2023-02-26T13:19:41;102269.88;;;7.42;60.74
61394;BME280;48555;50.952;-0.120;2023-02-26T13:22:17;102247.28;;;6.91;63.76
61394;BME280;48555;50.952;-0.120;2023-02-26T13:24:49;102250.03;;;6.87;64.49
61394;BME280;48555;50.952;-0.120;2023-02-26T13:27:15;102252.66;;;6.85;64.81
61394;BME280;48555;50.952;-0.120;2023-02-26T13:29:54;102248.38;;;6.84;64.94
61394;BME280;48555;50.952;-0.120;2023-02-26T13:32:24;102253.53;;;6.86;64.86
61394;BME280;48555;50.952;-0.120;2023-02-26T13:35:03;102246.00;;;6.76;64.52
61394;BME280;48555;50.952;-0.120;2023-02-26T13:37:39;102245.94;;;6.79;63.53
61394;BME280;48555;50.952;-0.120;2023-02-26T13:43:01;102246.06;;;6.75;63.35
61394;BME280;48555;50.952;-0.120;2023-02-26T13:45:47;102241.78;;;6.74;62.04
61394;BME280;48555;50.952;-0.120;2023-02-26T13:48:41;102247.44;;;6.87;58.97
61394;BME280;48555;50.952;-0.120;2023-02-26T13:51:20;102244.28;;;6.77;58.66
61394;BME280;48555;50.952;-0.120;2023-02-26T13:54:27;102238.53;;;6.94;58.98
61394;BME280;48555;50.952;-0.120;2023-02-26T13:56:54;102236.72;;;6.96;58.06
61394;BME280;48555;50.952;-0.120;2023-02-26T13:59:32;102234.19;;;6.94;58.01
61394;BME280;48555;50.952;-0.120;2023-02-26T14:02:01;102223.69;;;7.22;58.23
61394;BME280;48555;50.952;-0.120;2023-02-26T14:04:32;102216.53;;;7.29;57.68
61394;BME280;48555;50.952;-0.120;2023-02-26T14:07:14;102222.78;;;7.50;57.38
61394;BME280;48555;50.952;-0.120;2023-02-26T14:09:45;102230.16;;;7.62;54.51
61394;BME280;48555;50.952;-0.120;2023-02-26T14:17:50;102230.75;;;7.69;52.95
61394;BME280;48555;50.952;-0.120;2023-02-26T14:20:27;102212.47;;;7.70;52.35
61394;BME280;48555;50.952;-0.120;2023-02-26T14:25:46;102235.63;;;7.78;53.79
61394;BME280;48555;50.952;-0.120;2023-02-26T14:33:29;102233.72;;;8.07;54.77
61394;BME280;48555;50.952;-0.120;2023-02-26T14:35:56;102214.34;;;8.14;53.42
61394;BME280;48555;50.952;-0.120;2023-02-26T14:38:23;102218.59;;;8.16;52.54
61394;BME280;48555;50.952;-0.120;2023-02-26T14:41:05;102215.53;;;8.05;52.98
61394;BME280;48555;50.952;-0.120;2023-02-26T14:43:39;102219.78;;;7.84;53.50
61394;BME280;48555;50.952;-0.120;2023-02-26T14:46:07;102218.94;;;7.84;52.78
61394;BME280;48555;50.952;-0.120;2023-02-26T14:48:34;102220.38;;;7.92;53.37
61394;BME280;48555;50.952;-0.120;2023-02-26T14:51:53;102223.19;;;7.63;53.89
61394;BME280;48555;50.952;-0.120;2023-02-26T14:54:44;102224.31;;;7.79;53.51
61394;BME280;48555;50.952;-0.120;2023-02-26T15:00:40;102224.31;;;8.03;51.62
61394;BME280;48555;50.952;-0.120;2023-02-26T15:16:57;102245.81;;;7.61;52.87
61394;BME280;48555;50.952;-0.120;2023-02-26T15:25:00;102252.25;;;7.50;52.21
61394;BME280;48555;50.952;-0.120;2023-02-26T15:27:29;102246.38;;;7.44;52.05
61394;BME280;48555;50.952;-0.120;2023-02-26T15:29:55;102242.66;;;7.26;52.87
61394;BME280;48555;50.952;-0.120;2023-02-26T15:32:25;102254.94;;;7.22;53.87
61394;BME280;48555;50.952;-0.120;2023-02-26T15:35:00;102253.13;;;7.24;54.87
61394;BME280;48555;50.952;-0.120;2023-02-26T15:37:27;102260.53;;;7.37;54.77
61394;BME280;48555;50.952;-0.120;2023-02-26T15:39:54;102267.03;;;7.23;54.83